Aérodrome :
LOGIN :

S'inscrire | Disclaimer

   EN    FR    IT 

 










Légende :    VFR   VFR Marginal   IFR   IFR Intensif   IFR Très Intensif
Visi : 
Plafond : 
>= 8 km
>= 3000ft
5 à 8 km
1000 à 3000 ft
1500m à 5 km
500 à 1000 ft
800 à 1500m
200 à 500 ft
< 800m
< 200 ft
Symboles :   Orages  Brouillard  Fortes neiges  Fortes précipitations  Vent > 20 kt
SIGMETs :   Divers  Orages  Givrage  Turbulence  Onde Orograph.  Cendres Volcan.






- Altitude de l'aérodrome : 194 ft
- Code IATA : IEG


EPZG - Zielona Gora Babimost

DERNIER METAR :
  • 280800Z 16006KT 120V190 7000 -RA FEW017 BKN025 OVC031 05/04 Q0996

METARs EXPIRÉS :
  • 280730Z 16007KT 7000 -RA BKN025 OVC034 05/04 Q0997
  • 280700Z 18010KT 7000 -RA OVC038 05/03 Q0997
  • 280630Z 17010KT 9999 OVC038 06/03 Q0997
  • 280600Z 17008KT 140V200 9999 OVC041 06/03 Q0997
  • 280530Z 16010KT 130V190 9999 OVC040 05/03 Q0998
  • 280500Z 16007KT 130V190 9999 OVC040 05/03 Q0998

TAF TAF EPZG
Valide du 28 à 06h jusqu'au 28 à 15h UTC


280530Z 2806/2815 16010KT 9999 OVC033
BECMG 2806/2808 19015G25KT
TEMPO 2806/2809 4500 RA BR BKN013 OVC030



MET'MAP, la Météo Aéronautique d'un coup d'oeil ! - Copyright ORBIFLY Décembre 2007 - Disclaimer

ORBIFLY MET'MAP TEAM :

Programmation & Développement : Alexandra Zaïnal
Sur une idée originale de : Baudouin d'Aumeries
Assistance à la programmation : Marc-Olivier Méhu
Soutien technique & logistique : Manuel Goepfert

Contact : metmap@orbifly.com




SOURCES & CREDITS :

   NOAA